Time;durP1;ratioP1;P1;durP2;ratioP2;P2;SDS_P1;SDS_P2;PMS_P1;PMS_P2;Temp;Humidity;BMP_temperature;BMP_pressure;BME280_temperature;BME280_humidity;BME280_pressure;Samples;Min_cycle;Max_cycle;Signal;HPM_P1;HPM_P2
2023/08/30 00:00:45;;;;;;;;;;;;;;;;;;4966117;28;89456;-68
2023/08/30 00:03:12;;;;;;;;;;;;;;;;;;4959876;28;91010;-68
2023/08/30 00:05:38;;;;;;;;;;;;;;;;;;4958602;28;90781;-74
2023/08/30 00:08:04;;;;;;;;;;;;;;;;;;4960711;28;89766;-69
2023/08/30 00:10:29;;;;;;;;;;;;;;;;;;4960711;28;89226;-68
2023/08/30 00:12:54;;;;;;;;;;;;;;;;;;4960277;28;92093;-66
2023/08/30 00:15:19;;;;;;;;;;;;;;;;;;4957048;28;89826;-68
2023/08/30 00:17:45;;;;;;;;;;;;;;;;;;4955471;28;90000;-65
2023/08/30 00:20:11;;;;;;;;;;;;;;;;;;4958694;28;90282;-77
2023/08/30 00:22:36;;;;;;;;;;;;;;;;;;4956702;28;90665;-75
2023/08/30 00:25:02;;;;;;;;;;;;;;;;;;4955530;28;89572;-70
2023/08/30 00:27:27;;;;;;;;;;;;;;;;;;4959849;28;89734;-70
2023/08/30 00:29:52;;;;;;;;;;;;;;;;;;4953649;28;89217;-74
2023/08/30 00:32:17;;;;;;;;;;;;;;;;;;4954008;28;89647;-71
2023/08/30 00:34:42;;;;;;;;;;;;;;;;;;4955227;28;89277;-75
2023/08/30 00:37:08;;;;;;;;;;;;;;;;;;4959486;28;89413;-74
2023/08/30 00:39:34;;;;;;;;;;;;;;;;;;4952833;28;90663;-77
2023/08/30 00:42:00;;;;;;;;;;;;;;;;;;4960341;28;90070;-78
2023/08/30 00:44:26;;;;;;;;;;;;;;;;;;4960193;28;89757;-77
2023/08/30 00:46:51;;;;;;;;;;;;;;;;;;4949707;28;89184;-78
2023/08/30 00:49:16;;;;;;;;;;;;;;;;;;4961497;28;89524;-74
2023/08/30 00:51:41;;;;;;;;;;;;;;;;;;4962726;28;89524;-70
2023/08/30 00:54:07;;;;;;;;;;;;;;;;;;4957102;28;90196;-68
2023/08/30 00:56:33;;;;;;;;;;;;;;;;;;4962196;28;90756;-65
2023/08/30 00:58:59;;;;;;;;;;;;;;;;;;4954897;28;89558;-65
2023/08/30 01:01:24;;;;;;;;;;;;;;;;;;4956567;28;89589;-70
2023/08/30 01:03:49;;;;;;;;;;;;;;;;;;4962059;28;89667;-69
2023/08/30 01:06:14;;;;;;;;;;;;;;;;;;4963077;28;91001;-66
2023/08/30 01:08:41;;;;;;;;;;;;;;;;;;4954867;28;89732;-65
2023/08/30 01:11:18;;;;;;;;;;;;;;;;;;4964207;28;90198;-74
2023/08/30 01:13:52;;;;;;;;;;;;;;;;;;4955987;28;89756;-71
2023/08/30 01:16:20;;;;;;;;;;;;;;;;;;4966197;28;90200;-66
2023/08/30 01:18:46;;;;;;;;;;;;;;;;;;4958761;28;91072;-66
2023/08/30 01:21:17;;;;;;;;;;;;;;;;;;4961549;28;90312;-67
2023/08/30 01:23:52;;;;;;;;;;;;;;;;;;4949933;28;89481;-64
2023/08/30 01:26:24;;;;;;;;;;;;;;;;;;4958633;28;89806;-68
2023/08/30 01:28:51;;;;;;;;;;;;;;;;;;4965861;28;89717;-71
2023/08/30 01:31:16;;;;;;;;;;;;;;;;;;4952346;28;90105;-75
2023/08/30 01:33:42;;;;;;;;;;;;;;;;;;4959673;28;90287;-70
2023/08/30 01:36:08;;;;;;;;;;;;;;;;;;4961085;28;89372;-74
2023/08/30 01:38:33;;;;;;;;;;;;;;;;;;4958574;28;91128;-67
2023/08/30 01:40:59;;;;;;;;;;;;;;;;;;4954776;28;89316;-67
2023/08/30 01:43:26;;;;;;;;;;;;;;;;;;4955298;28;89589;-69
2023/08/30 01:45:51;;;;;;;;;;;;;;;;;;4959109;28;89992;-70
2023/08/30 01:48:17;;;;;;;;;;;;;;;;;;4954531;28;89822;-65
2023/08/30 01:50:43;;;;;;;;;;;;;;;;;;4955943;28;91385;-65
2023/08/30 01:53:10;;;;;;;;;;;;;;;;;;4956106;28;89343;-64
2023/08/30 01:55:36;;;;;;;;;;;;;;;;;;4956351;28;89182;-74
2023/08/30 01:58:02;;;;;;;;;;;;;;;;;;4954382;28;92056;-76
2023/08/30 02:00:27;;;;;;;;;;;;;;;;;;4958839;28;90649;-76
2023/08/30 02:02:52;;;;;;;;;;;;;;;;;;4965549;28;90555;-78
2023/08/30 02:05:18;;;;;;;;;;;;;;;;;;4960587;28;90790;-77
2023/08/30 02:07:51;;;;;;;;;;;;;;;;;;4963971;28;91807;-72
2023/08/30 02:10:21;;;;;;;;;;;;;;;;;;4961283;28;89441;-74
2023/08/30 02:12:47;;;;;;;;;;;;;;;;;;4963962;28;89104;-76
2023/08/30 02:15:13;;;;;;;;;;;;;;;;;;4956418;28;89641;-77
2023/08/30 02:17:39;;;;;;;;;;;;;;;;;;4961681;28;89489;-77
2023/08/30 02:20:05;;;;;;;;;;;;;;;;;;4960368;28;90340;-70
2023/08/30 02:22:31;;;;;;;;;;;;;;;;;;4963484;28;89655;-70
2023/08/30 02:24:56;;;;;;;;;;;;;;;;;;4952065;28;89422;-65
2023/08/30 02:27:21;;;;;;;;;;;;;;;;;;4965076;28;89355;-64
2023/08/30 02:29:46;;;;;;;;;;;;;;;;;;4964153;28;89698;-71
2023/08/30 02:32:12;;;;;;;;;;;;;;;;;;4957925;28;89353;-75
2023/08/30 02:34:37;;;;;;;;;;;;;;;;;;4956581;28;88998;-69
2023/08/30 02:37:02;;;;;;;;;;;;;;;;;;4956409;28;90890;-67
2023/08/30 02:39:27;;;;;;;;;;;;;;;;;;4958623;28;89083;-66
2023/08/30 02:41:53;;;;;;;;;;;;;;;;;;4963679;28;90037;-72
2023/08/30 02:44:18;;;;;;;;;;;;;;;;;;4956937;28;89423;-66
2023/08/30 02:46:43;;;;;;;;;;;;;;;;;;4953950;28;90145;-69
2023/08/30 02:49:09;;;;;;;;;;;;;;;;;;4963529;28;89760;-76
2023/08/30 02:51:34;;;;;;;;;;;;;;;;;;4961327;28;90928;-69
2023/08/30 02:53:59;;;;;;;;;;;;;;;;;;4961783;28;90143;-66
2023/08/30 02:56:25;;;;;;;;;;;;;;;;;;4959229;28;90526;-77
2023/08/30 02:58:50;;;;;;;;;;;;;;;;;;4963627;28;90412;-65
2023/08/30 03:01:16;;;;;;;;;;;;;;;;;;4963683;28;89083;-72
2023/08/30 03:03:41;;;;;;;;;;;;;;;;;;4954934;28;90664;-72
2023/08/30 03:06:06;;;;;;;;;;;;;;;;;;4964997;28;89953;-75
2023/08/30 03:08:32;;;;;;;;;;;;;;;;;;4959988;28;89740;-67
2023/08/30 03:11:07;;;;;;;;;;;;;;;;;;4964266;28;90697;-78
2023/08/30 03:13:32;;;;;;;;;;;;;;;;;;4959675;28;89332;-76
2023/08/30 03:15:57;;;;;;;;;;;;;;;;;;4958134;28;89976;-78
2023/08/30 03:18:22;;;;;;;;;;;;;;;;;;4959288;28;89226;-73
2023/08/30 03:20:47;;;;;;;;;;;;;;;;;;4962546;28;90684;-70
2023/08/30 03:23:13;;;;;;;;;;;;;;;;;;4964453;28;89715;-73
2023/08/30 03:25:38;;;;;;;;;;;;;;;;;;4958547;28;89744;-72
2023/08/30 03:28:03;;;;;;;;;;;;;;;;;;4961588;28;89903;-70
2023/08/30 03:30:29;;;;;;;;;;;;;;;;;;4959010;28;90508;-65
2023/08/30 03:32:54;;;;;;;;;;;;;;;;;;4958469;28;89691;-64
2023/08/30 03:35:21;;;;;;;;;;;;;;;;;;4960982;28;89413;-76
2023/08/30 03:37:46;;;;;;;;;;;;;;;;;;4962334;28;90982;-71
2023/08/30 03:40:12;;;;;;;;;;;;;;;;;;4960816;28;89533;-77
2023/08/30 03:42:37;;;;;;;;;;;;;;;;;;4962579;28;91009;-76
2023/08/30 03:45:05;;;;;;;;;;;;;;;;;;4960620;28;89313;-75
2023/08/30 03:47:30;;;;;;;;;;;;;;;;;;4954500;28;89221;-68
2023/08/30 03:49:55;;;;;;;;;;;;;;;;;;4957490;28;89528;-72
2023/08/30 03:52:20;;;;;;;;;;;;;;;;;;4962006;28;91863;-67
2023/08/30 03:54:46;;;;;;;;;;;;;;;;;;4960406;28;89566;-71
2023/08/30 03:57:11;;;;;;;;;;;;;;;;;;4960471;28;89507;-70
2023/08/30 03:59:36;;;;;;;;;;;;;;;;;;4959396;28;89314;-64
2023/08/30 04:02:01;;;;;;;;;;;;;;;;;;4958205;28;89654;-66
2023/08/30 04:04:26;;;;;;;;;;;;;;;;;;4955289;28;91750;-74
2023/08/30 04:06:52;;;;;;;;;;;;;;;;;;4959686;28;90121;-77
2023/08/30 04:09:17;;;;;;;;;;;;;;;;;;4953741;28;90050;-78
2023/08/30 04:11:43;;;;;;;;;;;;;;;;;;4959408;28;90212;-77
2023/08/30 04:14:08;;;;;;;;;;;;;;;;;;4961895;28;89773;-74
2023/08/30 04:16:33;;;;;;;;;;;;;;;;;;4961376;28;89398;-72
2023/08/30 04:18:58;;;;;;;;;;;;;;;;;;4958072;28;89916;-74
2023/08/30 04:21:24;;;;;;;;;;;;;;;;;;4959991;28;90625;-66
2023/08/30 04:23:49;;;;;;;;;;;;;;;;;;4959846;28;89161;-69
2023/08/30 04:26:14;;;;;;;;;;;;;;;;;;4957478;28;89519;-68
2023/08/30 04:28:39;;;;;;;;;;;;;;;;;;4960208;28;89930;-74
2023/08/30 04:31:04;;;;;;;;;;;;;;;;;;4952956;28;89645;-70
2023/08/30 04:33:30;;;;;;;;;;;;;;;;;;4957255;28;89481;-68
2023/08/30 04:35:55;;;;;;;;;;;;;;;;;;4956237;28;89615;-64
2023/08/30 04:38:20;;;;;;;;;;;;;;;;;;4958108;28;89336;-64
2023/08/30 04:40:46;;;;;;;;;;;;;;;;;;4961681;28;89266;-68
2023/08/30 04:43:11;;;;;;;;;;;;;;;;;;4963711;28;89391;-70
2023/08/30 04:45:36;;;;;;;;;;;;;;;;;;4955799;28;89314;-69
2023/08/30 04:48:02;;;;;;;;;;;;;;;;;;4957078;28;89606;-67
2023/08/30 04:50:27;;;;;;;;;;;;;;;;;;4961270;28;91094;-75
2023/08/30 04:52:52;;;;;;;;;;;;;;;;;;4959576;28;89607;-68
2023/08/30 04:55:18;;;;;;;;;;;;;;;;;;4950796;28;89724;-71
2023/08/30 04:57:44;;;;;;;;;;;;;;;;;;4957781;28;89574;-71
2023/08/30 05:00:10;;;;;;;;;;;;;;;;;;4962539;28;89693;-77
2023/08/30 05:02:35;;;;;;;;;;;;;;;;;;4960701;28;89413;-72
2023/08/30 05:05:01;;;;;;;;;;;;;;;;;;4953889;28;89029;-73
2023/08/30 05:07:26;;;;;;;;;;;;;;;;;;4958029;28;89654;-71
2023/08/30 05:09:51;;;;;;;;;;;;;;;;;;4952393;28;89373;-73
2023/08/30 05:12:16;;;;;;;;;;;;;;;;;;4958390;28;89637;-74
2023/08/30 05:14:42;;;;;;;;;;;;;;;;;;4952949;28;89545;-74
2023/08/30 05:17:07;;;;;;;;;;;;;;;;;;4956353;28;89585;-66
2023/08/30 05:19:32;;;;;;;;;;;;;;;;;;4958747;28;89655;-73
2023/08/30 05:21:57;;;;;;;;;;;;;;;;;;4964157;28;89400;-67
2023/08/30 05:24:23;;;;;;;;;;;;;;;;;;4960169;28;89161;-66
2023/08/30 05:26:48;;;;;;;;;;;;;;;;;;4962172;28;90675;-74
2023/08/30 05:29:14;;;;;;;;;;;;;;;;;;4961392;28;89160;-70
2023/08/30 05:31:39;;;;;;;;;;;;;;;;;;4961361;28;89546;-69
2023/08/30 05:34:05;;;;;;;;;;;;;;;;;;4958706;28;90035;-67
2023/08/30 05:36:30;;;;;;;;;;;;;;;;;;4953427;28;89170;-65
2023/08/30 05:38:55;;;;;;;;;;;;;;;;;;4954852;28;89874;-65
2023/08/30 05:41:20;;;;;;;;;;;;;;;;;;4968192;28;91390;-65
2023/08/30 05:43:45;;;;;;;;;;;;;;;;;;4958286;28;89900;-74
2023/08/30 05:46:14;;;;;;;;;;;;;;;;;;4957625;28;89166;-74
2023/08/30 05:48:40;;;;;;;;;;;;;;;;;;4955969;28;90243;-75
2023/08/30 05:51:05;;;;;;;;;;;;;;;;;;4956614;28;89361;-72
2023/08/30 05:53:30;;;;;;;;;;;;;;;;;;4952529;28;90031;-72
2023/08/30 05:55:55;;;;;;;;;;;;;;;;;;4952899;28;90418;-71
2023/08/30 05:58:21;;;;;;;;;;;;;;;;;;4950138;28;90149;-69
2023/08/30 06:00:46;;;;;;;;;;;;;;;;;;4955771;28;90564;-68
2023/08/30 06:03:12;;;;;;;;;;;;;;;;;;4952764;28;89684;-67
2023/08/30 06:05:37;;;;;;;;;;;;;;;;;;4957232;28;89275;-69
2023/08/30 06:37:59;;;;;;;;;;;;;;;;;;4993279;28;89458;-76
2023/08/30 06:40:24;;;;;;;;;;;;;;;;;;4991096;28;90289;-61
2023/08/30 06:42:49;;;;;;;;;;;;;;;;;;4994993;28;90057;-65
2023/08/30 06:45:16;;;;;;;;;;;;;;;;;;4992745;28;93026;-66
2023/08/30 06:47:44;;;;;;;;;;;;;;;;;;4995375;28;90784;-66
2023/08/30 06:50:10;;;;;;;;;;;;;;;;;;4998274;28;89725;-66
2023/08/30 06:52:36;;;;;;;;;;;;;;;;;;5000005;28;90532;-69
2023/08/30 06:55:02;;;;;;;;;;;;;;;;;;5001072;28;89517;-71
2023/08/30 06:57:27;;;;;;;;;;;;;;;;;;4998887;28;90495;-64
2023/08/30 06:59:53;;;;;;;;;;;;;;;;;;5000865;28;90033;-60
2023/08/30 07:02:18;;;;;;;;;;;;;;;;;;4995755;28;89717;-70
2023/08/30 07:04:43;;;;;;;;;;;;;;;;;;4996224;28;91602;-67
2023/08/30 07:07:09;;;;;;;;;;;;;;;;;;5002700;28;90053;-61
2023/08/30 07:09:34;;;;;;;;;;;;;;;;;;4999712;28;90608;-68
2023/08/30 07:12:00;;;;;;;;;;;;;;;;;;4995737;28;90011;-61
2023/08/30 07:14:26;;;;;;;;;;;;;;;;;;4996823;28;89814;-61
2023/08/30 07:16:51;;;;;;;;;;;;;;;;;;4999635;28;90331;-65
2023/08/30 07:19:16;;;;;;;;;;;;;;;;;;4996258;28;89690;-66
2023/08/30 07:21:42;;;;;;;;;;;;;;;;;;4997402;28;89062;-62
2023/08/30 07:24:07;;;;;;;;;;;;;;;;;;4994155;28;89623;-62
2023/08/30 07:26:33;;;;;;;;;;;;;;;;;;4996690;28;90102;-64
2023/08/30 07:29:00;;;;;;;;;;;;;;;;;;4995950;28;89637;-64
2023/08/30 07:31:26;;;;;;;;;;;;;;;;;;4996633;28;91335;-63
2023/08/30 07:33:51;;;;;;;;;;;;;;;;;;4983001;28;93323;-66
2023/08/30 07:36:17;;;;;;;;;;;;;;;;;;4994812;28;90161;-63
2023/08/30 07:38:43;;;;;;;;;;;;;;;;;;5001194;28;89800;-65
2023/08/30 07:41:10;;;;;;;;;;;;;;;;;;4994213;28;89336;-76
2023/08/30 07:43:36;;;;;;;;;;;;;;;;;;4991870;28;93020;-65
2023/08/30 07:46:01;;;;;;;;;;;;;;;;;;4996604;28;92013;-68
2023/08/30 07:48:27;;;;;;;;;;;;;;;;;;4995946;28;89773;-62
2023/08/30 07:50:52;;;;;;;;;;;;;;;;;;4999012;28;90150;-62
2023/08/30 07:53:17;;;;;;;;;;;;;;;;;;4995295;28;89211;-62
2023/08/30 07:55:42;;;;;;;;;;;;;;;;;;4992800;28;89128;-62
2023/08/30 07:58:10;;;;;;;;;;;;;;;;;;4998324;28;90490;-64
2023/08/30 08:00:35;;;;;;;;;;;;;;;;;;4996268;28;90022;-61
2023/08/30 08:03:00;;;;;;;;;;;;;;;;;;4995046;28;89519;-64
2023/08/30 08:05:25;;;;;;;;;;;;;;;;;;4994909;28;90001;-64
2023/08/30 08:07:51;;;;;;;;;;;;;;;;;;4998272;28;89138;-66
2023/08/30 08:10:16;;;;;;;;;;;;;;;;;;4992633;28;89606;-62
2023/08/30 08:12:42;;;;;;;;;;;;;;;;;;4997706;28;89699;-62
2023/08/30 08:15:10;;;;;;;;;;;;;;;;;;4997559;28;90307;-64
2023/08/30 08:17:35;;;;;;;;;;;;;;;;;;4993336;28;89831;-65
2023/08/30 08:20:01;;;;;;;;;;;;;;;;;;4998483;28;90282;-63
2023/08/30 08:22:26;;;;;;;;;;;;;;;;;;4995238;28;89811;-63
2023/08/30 08:24:53;;;;;;;;;;;;;;;;;;4996337;28;90385;-65
2023/08/30 08:27:18;;;;;;;;;;;;;;;;;;4997019;28;91193;-62
2023/08/30 08:29:44;;;;;;;;;;;;;;;;;;4996080;28;89708;-65
2023/08/30 08:32:09;;;;;;;;;;;;;;;;;;4998743;28;89821;-63
2023/08/30 08:34:34;;;;;;;;;;;;;;;;;;4998825;28;90292;-62
2023/08/30 08:37:00;;;;;;;;;;;;;;;;;;4996807;28;89580;-64
2023/08/30 08:39:25;;;;;;;;;;;;;;;;;;4998370;28;89595;-61
2023/08/30 08:41:53;;;;;;;;;;;;;;;;;;4997676;28;90786;-62
2023/08/30 08:44:18;;;;;;;;;;;;;;;;;;4994438;28;90641;-63
2023/08/30 08:46:44;;;;;;;;;;;;;;;;;;4996746;28;89506;-61
2023/08/30 08:49:13;;;;;;;;;;;;;;;;;;4998137;28;89755;-63
2023/08/30 08:51:38;;;;;;;;;;;;;;;;;;4997926;28;89215;-63
2023/08/30 08:54:04;;;;;;;;;;;;;;;;;;4998313;28;90983;-61
2023/08/30 08:56:34;;;;;;;;;;;;;;;;;;4999587;28;91272;-63
2023/08/30 08:58:59;;;;;;;;;;;;;;;;;;4998155;28;90246;-62
2023/08/30 09:01:24;;;;;;;;;;;;;;;;;;4997122;28;90239;-62
2023/08/30 09:03:50;;;;;;;;;;;;;;;;;;5002803;28;90187;-65
2023/08/30 09:06:15;;;;;;;;;;;;;;;;;;4994809;28;89345;-65
2023/08/30 09:08:40;;;;;;;;;;;;;;;;;;4996159;28;89987;-64
2023/08/30 09:11:05;;;;;;;;;;;;;;;;;;4994936;28;90046;-63
2023/08/30 09:13:31;;;;;;;;;;;;;;;;;;4995494;28;91376;-66
2023/08/30 09:15:56;;;;;;;;;;;;;;;;;;4996380;28;90760;-65
2023/08/30 09:18:27;;;;;;;;;;;;;;;;;;4995103;28;90235;-62
2023/08/30 09:20:52;;;;;;;;;;;;;;;;;;4994688;28;89396;-66
2023/08/30 09:23:21;;;;;;;;;;;;;;;;;;4992943;28;89237;-66
2023/08/30 09:25:46;;;;;;;;;;;;;;;;;;5006478;28;90133;-63
2023/08/30 09:28:12;;;;;;;;;;;;;;;;;;4997237;28;89942;-62
2023/08/30 09:30:39;;;;;;;;;;;;;;;;;;4996876;28;89949;-62
2023/08/30 09:33:04;;;;;;;;;;;;;;;;;;4997616;28;90434;-62
2023/08/30 09:35:29;;;;;;;;;;;;;;;;;;4995057;28;90512;-65
2023/08/30 09:37:55;;;;;;;;;;;;;;;;;;4996294;28;90370;-64
2023/08/30 09:40:20;;;;;;;;;;;;;;;;;;4996028;28;89373;-62
2023/08/30 09:42:45;;;;;;;;;;;;;;;;;;4993787;28;89458;-62
2023/08/30 09:45:23;;;;;;;;;;;;;;;;;;4994342;28;91021;-63
2023/08/30 09:47:49;;;;;;;;;;;;;;;;;;4996859;28;89280;-62
2023/08/30 09:50:16;;;;;;;;;;;;;;;;;;4996976;28;90011;-65
2023/08/30 09:52:48;;;;;;;;;;;;;;;;;;4998110;28;90351;-62
2023/08/30 09:55:18;;;;;;;;;;;;;;;;;;4998845;28;90124;-62
2023/08/30 09:57:43;;;;;;;;;;;;;;;;;;4995934;28;89876;-62
2023/08/30 10:00:12;;;;;;;;;;;;;;;;;;4997629;28;89547;-62
2023/08/30 10:02:37;;;;;;;;;;;;;;;;;;4994394;28;91358;-62
2023/08/30 10:05:02;;;;;;;;;;;;;;;;;;4995709;28;89759;-62
2023/08/30 10:07:28;;;;;;;;;;;;;;;;;;4994005;28;89483;-62
2023/08/30 10:09:53;;;;;;;;;;;;;;;;;;5000432;28;89231;-62
2023/08/30 10:12:21;;;;;;;;;;;;;;;;;;5001540;28;89926;-61
2023/08/30 10:14:46;;;;;;;;;;;;;;;;;;4995071;28;89335;-62
2023/08/30 10:17:12;;;;;;;;;;;;;;;;;;4994761;28;89207;-67
2023/08/30 10:19:37;;;;;;;;;;;;;;;;;;4996969;28;90516;-62
2023/08/30 10:22:05;;;;;;;;;;;;;;;;;;4955316;27;91723;-67
2023/08/30 10:24:33;;;;;;;;;;;;;;;;;;4941224;27;96232;-68
2023/08/30 10:26:59;;;;;;;;;;;;;;;;;;4998402;28;89429;-67
2023/08/30 10:29:26;;;;;;;;;;;;;;;;;;5001044;28;89736;-65
2023/08/30 10:31:51;;;;;;;;;;;;;;;;;;4994453;28;89258;-61
2023/08/30 10:34:17;;;;;;;;;;;;;;;;;;5002321;28;90625;-62
2023/08/30 10:36:43;;;;;;;;;;;;;;;;;;5001251;28;89475;-62
2023/08/30 10:39:15;;;;;;;;;;;;;;;;;;4995659;28;89937;-65
2023/08/30 10:41:56;;;;;;;;;;;;;;;;;;5001156;28;89724;-63
2023/08/30 10:44:21;;;;;;;;;;;;;;;;;;4996709;28;91276;-65
2023/08/30 10:46:51;;;;;;;;;;;;;;;;;;4994665;28;90007;-67
2023/08/30 10:49:18;;;;;;;;;;;;;;;;;;4990371;28;92930;-62
2023/08/30 10:51:47;;;;;;;;;;;;;;;;;;5003834;28;90491;-63
2023/08/30 10:54:16;;;;;;;;;;;;;;;;;;4996260;28;90259;-66
2023/08/30 10:56:59;;;;;;;;;;;;;;;;;;4996661;28;89490;-61
2023/08/30 10:59:25;;;;;;;;;;;;;;;;;;4997991;28;89862;-62
2023/08/30 11:01:51;;;;;;;;;;;;;;;;;;4999593;28;89462;-64
2023/08/30 11:04:17;;;;;;;;;;;;;;;;;;4995663;28;91199;-65
2023/08/30 11:06:44;;;;;;;;;;;;;;;;;;4993299;28;89542;-65
2023/08/30 11:09:10;;;;;;;;;;;;;;;;;;5001996;28;90898;-62
2023/08/30 11:11:38;;;;;;;;;;;;;;;;;;5000823;28;89618;-66
2023/08/30 11:14:07;;;;;;;;;;;;;;;;;;5003681;28;89314;-63
2023/08/30 11:16:34;;;;;;;;;;;;;;;;;;4993479;28;89711;-64
2023/08/30 11:19:00;;;;;;;;;;;;;;;;;;4995161;28;89260;-69
2023/08/30 11:21:25;;;;;;;;;;;;;;;;;;5011406;28;90475;-71
2023/08/30 11:23:51;;;;;;;;;;;;;;;;;;4995912;28;90221;-72
2023/08/30 11:26:16;;;;;;;;;;;;;;;;;;4998556;28;89863;-66
2023/08/30 11:28:48;;;;;;;;;;;;;;;;;;4997266;28;90723;-62
2023/08/30 11:31:23;;;;;;;;;;;;;;;;;;4996359;28;89712;-69
2023/08/30 11:33:55;;;;;;;;;;;;;;;;;;4993956;28;90351;-73
2023/08/30 11:36:24;;;;;;;;;;;;;;;;;;5000681;28;90749;-68
2023/08/30 11:38:50;;;;;;;;;;;;;;;;;;4997493;28;89982;-68
2023/08/30 11:41:15;;;;;;;;;;;;;;;;;;5000591;28;89552;-65
2023/08/30 11:43:41;;;;;;;;;;;;;;;;;;4999071;28;89366;-62
2023/08/30 11:46:07;;;;;;;;;;;;;;;;;;4996346;28;89881;-69
2023/08/30 11:48:33;;;;;;;;;;;;;;;;;;4998296;28;90002;-63
2023/08/30 11:50:59;;;;;;;;;;;;;;;;;;4992975;28;89580;-69
2023/08/30 11:53:24;;;;;;;;;;;;;;;;;;4995888;28;90198;-61
2023/08/30 11:55:49;;;;;;;;;;;;;;;;;;4991243;28;90220;-61
2023/08/30 11:58:15;;;;;;;;;;;;;;;;;;4999500;28;89798;-63
2023/08/30 12:00:40;;;;;;;;;;;;;;;;;;5001063;28;89534;-65
2023/08/30 12:03:05;;;;;;;;;;;;;;;;;;4996469;28;89316;-71
2023/08/30 12:05:33;;;;;;;;;;;;;;;;;;4997671;28;89009;-63
2023/08/30 12:07:59;;;;;;;;;;;;;;;;;;4998486;28;90723;-61
2023/08/30 12:10:24;;;;;;;;;;;;;;;;;;4993125;28;90153;-61
2023/08/30 12:12:50;;;;;;;;;;;;;;;;;;4994387;28;89666;-60
2023/08/30 12:15:16;;;;;;;;;;;;;;;;;;4995996;28;90872;-68
2023/08/30 12:17:41;;;;;;;;;;;;;;;;;;5001789;28;90139;-67
2023/08/30 12:20:14;;;;;;;;;;;;;;;;;;5001476;28;92714;-70
2023/08/30 12:22:39;;;;;;;;;;;;;;;;;;4999096;28;90374;-67
2023/08/30 12:25:15;;;;;;;;;;;;;;;;;;4996552;28;89802;-71
2023/08/30 12:27:40;;;;;;;;;;;;;;;;;;4999309;28;92119;-71
2023/08/30 12:30:06;;;;;;;;;;;;;;;;;;4998095;28;89650;-70
2023/08/30 12:32:31;;;;;;;;;;;;;;;;;;4997438;28;90156;-63
2023/08/30 12:34:57;;;;;;;;;;;;;;;;;;4996226;28;90049;-61
2023/08/30 12:37:23;;;;;;;;;;;;;;;;;;4996411;28;89533;-65
2023/08/30 12:39:48;;;;;;;;;;;;;;;;;;4995314;28;90861;-61
2023/08/30 12:42:14;;;;;;;;;;;;;;;;;;4996083;28;89893;-61
2023/08/30 12:44:39;;;;;;;;;;;;;;;;;;4994700;28;91355;-61
2023/08/30 12:47:04;;;;;;;;;;;;;;;;;;4993244;28;90704;-62
2023/08/30 12:49:29;;;;;;;;;;;;;;;;;;4992075;28;89773;-69
2023/08/30 12:51:55;;;;;;;;;;;;;;;;;;4992161;28;90000;-63
2023/08/30 12:54:20;;;;;;;;;;;;;;;;;;4993428;28;90515;-64
2023/08/30 12:56:45;;;;;;;;;;;;;;;;;;4993706;28;91016;-63
2023/08/30 12:59:10;;;;;;;;;;;;;;;;;;4996619;28;89057;-63
2023/08/30 13:01:35;;;;;;;;;;;;;;;;;;5001536;28;89486;-67
2023/08/30 13:04:01;;;;;;;;;;;;;;;;;;4997739;28;90304;-68
2023/08/30 13:06:26;;;;;;;;;;;;;;;;;;4994705;28;90163;-69
2023/08/30 13:08:51;;;;;;;;;;;;;;;;;;4992640;28;90309;-70
2023/08/30 13:11:16;;;;;;;;;;;;;;;;;;4999505;28;90442;-65
2023/08/30 13:13:42;;;;;;;;;;;;;;;;;;4991649;28;89534;-62
2023/08/30 13:16:07;;;;;;;;;;;;;;;;;;4994416;28;89797;-65
2023/08/30 13:18:32;;;;;;;;;;;;;;;;;;4994382;28;90182;-63
2023/08/30 13:20:57;;;;;;;;;;;;;;;;;;5000459;28;89870;-63
2023/08/30 13:23:22;;;;;;;;;;;;;;;;;;4999920;28;89667;-61
2023/08/30 13:25:48;;;;;;;;;;;;;;;;;;4999180;28;90798;-62
2023/08/30 13:28:14;;;;;;;;;;;;;;;;;;4993033;28;90507;-61
2023/08/30 13:30:45;;;;;;;;;;;;;;;;;;4992677;28;90098;-62
2023/08/30 13:33:11;;;;;;;;;;;;;;;;;;4997350;28;90573;-67
2023/08/30 13:35:38;;;;;;;;;;;;;;;;;;4998171;28;90464;-64
2023/08/30 13:38:04;;;;;;;;;;;;;;;;;;4994800;28;89857;-67
2023/08/30 13:40:29;;;;;;;;;;;;;;;;;;4995132;28;89955;-62
2023/08/30 13:42:54;;;;;;;;;;;;;;;;;;4991182;28;90348;-64
2023/08/30 13:45:20;;;;;;;;;;;;;;;;;;4998539;28;89279;-62
2023/08/30 13:47:46;;;;;;;;;;;;;;;;;;4994480;28;90214;-62
2023/08/30 13:50:11;;;;;;;;;;;;;;;;;;4998840;28;89597;-62
2023/08/30 13:52:37;;;;;;;;;;;;;;;;;;4997107;28;89514;-62
2023/08/30 13:55:02;;;;;;;;;;;;;;;;;;4996751;28;89457;-71
2023/08/30 13:57:27;;;;;;;;;;;;;;;;;;5000074;28;90129;-66
2023/08/30 13:59:54;;;;;;;;;;;;;;;;;;5003060;28;91072;-73
2023/08/30 14:02:20;;;;;;;;;;;;;;;;;;4997951;28;90563;-66
2023/08/30 14:04:45;;;;;;;;;;;;;;;;;;5003119;28;90114;-63
2023/08/30 14:07:11;;;;;;;;;;;;;;;;;;5001130;28;91464;-61
2023/08/30 14:09:37;;;;;;;;;;;;;;;;;;4999585;28;89454;-68
2023/08/30 14:12:03;;;;;;;;;;;;;;;;;;4999532;28;90664;-66
2023/08/30 14:14:29;;;;;;;;;;;;;;;;;;5001437;28;90303;-62
2023/08/30 14:16:54;;;;;;;;;;;;;;;;;;4999609;28;89883;-68
2023/08/30 14:19:19;;;;;;;;;;;;;;;;;;5000610;28;89871;-63
2023/08/30 14:21:45;;;;;;;;;;;;;;;;;;5000058;28;90072;-63
2023/08/30 14:24:11;;;;;;;;;;;;;;;;;;5001123;28;89854;-65
2023/08/30 14:26:36;;;;;;;;;;;;;;;;;;5004369;28;89642;-61
2023/08/30 14:29:01;;;;;;;;;;;;;;;;;;4998800;28;89071;-62
2023/08/30 14:31:27;;;;;;;;;;;;;;;;;;5002310;28;89496;-61
2023/08/30 14:33:55;;;;;;;;;;;;;;;;;;5000543;28;90669;-61
2023/08/30 14:36:21;;;;;;;;;;;;;;;;;;4997057;28;89859;-68
2023/08/30 14:38:46;;;;;;;;;;;;;;;;;;4999665;28;89434;-63
2023/08/30 14:41:12;;;;;;;;;;;;;;;;;;4999661;28;90285;-65
2023/08/30 14:43:38;;;;;;;;;;;;;;;;;;5000787;28;89696;-61
2023/08/30 14:46:04;;;;;;;;;;;;;;;;;;5002626;28;89845;-61
2023/08/30 14:48:31;;;;;;;;;;;;;;;;;;5005360;28;90857;-66
2023/08/30 14:50:57;;;;;;;;;;;;;;;;;;4995625;28;90523;-64
2023/08/30 14:53:22;;;;;;;;;;;;;;;;;;4997878;28;89696;-67
2023/08/30 14:55:47;;;;;;;;;;;;;;;;;;4997323;28;89316;-63
2023/08/30 14:58:13;;;;;;;;;;;;;;;;;;4999387;28;89521;-61
2023/08/30 15:00:38;;;;;;;;;;;;;;;;;;4996715;28;89862;-69
2023/08/30 15:03:03;;;;;;;;;;;;;;;;;;4998516;28;89762;-61
2023/08/30 15:05:28;;;;;;;;;;;;;;;;;;4994224;28;90024;-67
2023/08/30 15:07:54;;;;;;;;;;;;;;;;;;4998465;28;90148;-66
2023/08/30 15:10:19;;;;;;;;;;;;;;;;;;4998721;28;90275;-60
2023/08/30 15:12:44;;;;;;;;;;;;;;;;;;4995824;28;92151;-63
2023/08/30 15:15:10;;;;;;;;;;;;;;;;;;4999031;28;89337;-62
2023/08/30 15:17:35;;;;;;;;;;;;;;;;;;4996056;28;92476;-61
2023/08/30 15:20:00;;;;;;;;;;;;;;;;;;4999770;28;89787;-63
2023/08/30 15:22:25;;;;;;;;;;;;;;;;;;4999346;28;89362;-64
2023/08/30 15:24:50;;;;;;;;;;;;;;;;;;4991799;28;89805;-62
2023/08/30 15:27:16;;;;;;;;;;;;;;;;;;4999410;28;89740;-63
2023/08/30 15:29:41;;;;;;;;;;;;;;;;;;4998815;28;89445;-63
2023/08/30 15:32:06;;;;;;;;;;;;;;;;;;5000571;28;89866;-63
2023/08/30 15:34:31;;;;;;;;;;;;;;;;;;4996963;28;89654;-63
2023/08/30 15:36:56;;;;;;;;;;;;;;;;;;4999966;28;89719;-64
2023/08/30 15:39:22;;;;;;;;;;;;;;;;;;4997572;28;89815;-65
2023/08/30 15:41:48;;;;;;;;;;;;;;;;;;5000571;28;89633;-68
2023/08/30 15:44:13;;;;;;;;;;;;;;;;;;4999071;28;91361;-64
2023/08/30 15:46:39;;;;;;;;;;;;;;;;;;4997963;28;90305;-63
2023/08/30 15:49:04;;;;;;;;;;;;;;;;;;5000241;28;90438;-66
2023/08/30 15:51:29;;;;;;;;;;;;;;;;;;4996567;28;89615;-67
2023/08/30 15:53:55;;;;;;;;;;;;;;;;;;5003105;28;91049;-62
2023/08/30 15:56:20;;;;;;;;;;;;;;;;;;4997637;28;92560;-71
2023/08/30 15:58:46;;;;;;;;;;;;;;;;;;4997677;28;90569;-68
2023/08/30 16:01:13;;;;;;;;;;;;;;;;;;4998295;28;89494;-71
2023/08/30 16:03:38;;;;;;;;;;;;;;;;;;4996222;28;90951;-61
2023/08/30 16:06:03;;;;;;;;;;;;;;;;;;4998900;28;89095;-62
2023/08/30 16:08:29;;;;;;;;;;;;;;;;;;4994355;28;89917;-69
2023/08/30 16:10:55;;;;;;;;;;;;;;;;;;4996202;28;91282;-61
2023/08/30 16:13:20;;;;;;;;;;;;;;;;;;4997983;28;89994;-61
2023/08/30 16:15:45;;;;;;;;;;;;;;;;;;5002320;28;89112;-68
2023/08/30 16:18:10;;;;;;;;;;;;;;;;;;4996210;28;89823;-65
2023/08/30 16:20:36;;;;;;;;;;;;;;;;;;4997546;28;90539;-66
2023/08/30 16:23:01;;;;;;;;;;;;;;;;;;4996408;28;90146;-64
2023/08/30 16:25:27;;;;;;;;;;;;;;;;;;4998920;28;89270;-61
2023/08/30 16:27:52;;;;;;;;;;;;;;;;;;4994994;28;89522;-63
2023/08/30 16:30:17;;;;;;;;;;;;;;;;;;4995945;28;90257;-61
2023/08/30 16:32:43;;;;;;;;;;;;;;;;;;5001357;28;89796;-67
2023/08/30 16:35:08;;;;;;;;;;;;;;;;;;4999645;28;89055;-62
2023/08/30 16:37:34;;;;;;;;;;;;;;;;;;5000443;28;90598;-64
2023/08/30 16:39:59;;;;;;;;;;;;;;;;;;4998472;28;89829;-62
2023/08/30 16:42:24;;;;;;;;;;;;;;;;;;4997933;28;91952;-61
2023/08/30 16:44:49;;;;;;;;;;;;;;;;;;4993827;28;89792;-61
2023/08/30 16:47:15;;;;;;;;;;;;;;;;;;4995775;28;89089;-61
2023/08/30 16:49:40;;;;;;;;;;;;;;;;;;4994604;28;89814;-61
2023/08/30 16:52:05;;;;;;;;;;;;;;;;;;4995751;28;90299;-62
2023/08/30 16:54:30;;;;;;;;;;;;;;;;;;5000901;28;89899;-62
2023/08/30 16:56:56;;;;;;;;;;;;;;;;;;5001625;28;90405;-68
2023/08/30 16:59:22;;;;;;;;;;;;;;;;;;4993164;28;91758;-66
2023/08/30 17:01:47;;;;;;;;;;;;;;;;;;4999041;28;90156;-64
2023/08/30 17:04:14;;;;;;;;;;;;;;;;;;4996284;28;91063;-66
2023/08/30 17:06:39;;;;;;;;;;;;;;;;;;4994965;28;91040;-64